Latest Weather Observations for Dum In Mirrie

IDD60801

Issued at 10:05 pm CST Wednesday 27 August 2014 (issued every 30 minutes, with the page automatically refreshed every 10 minutes)

About weather observations | Map of weather stations | Latest weather observations for NT | Other Formats
Station Details ID: 014277 Name: DUM IN MIRRIE AIRSTRIP Lat: -12.63 Lon: 130.37 Height: 3.5 m
Data from the previous 72 hours. | See also: Recent months at Dum In Mirrie
Date/Time
CST
Temp
°C
App
Temp
°C
Dew
Point
Rel
Hum
%
Delta-T
°C
Wind Press
QNH
hPa
Press
MSL
hPa
Rain
since 9 am
mm
Dir
 
Spd
km/h
Gust
km/h
Spd
kts
Gust
kts
27/10:00pm 23.5 26.0 19.8 80 2.4 S 6 11 3 6 1013.7 1013.7 0.0
27/09:30pm 23.2 25.5 19.4 79 2.4 SSW 6 11 3 6 1013.6 1013.6 0.0
27/09:00pm 23.1 25.6 19.1 78 2.5 SW 4 6 2 3 1013.5 1013.5 0.0
27/08:30pm 23.5 26.4 19.0 76 2.9 SW 2 4 1 2 1013.1 1013.1 0.0
27/08:00pm 24.0 26.2 18.4 71 3.5 W 4 7 2 4 1012.8 1012.8 0.0
27/07:30pm 24.4 26.2 18.3 69 3.8 W 6 11 3 6 1012.5 1012.5 0.0
27/07:00pm 24.5 26.3 18.4 69 3.9 W 6 9 3 5 1012.1 1012.1 0.0
27/06:30pm 25.1 26.9 18.3 66 4.3 W 6 13 3 7 1011.7 1011.7 0.0
27/06:00pm 26.4 28.2 18.8 63 4.9 W 7 13 4 7 1011.4 1011.4 0.0
27/05:30pm 27.2 28.6 17.9 56 5.9 WNW 7 11 4 6 1011.2 1011.2 0.0
27/05:00pm 27.4 28.3 17.6 55 6.2 WNW 9 15 5 8 1011.0 1011.0 0.0
27/04:30pm 28.1 28.8 17.0 51 7.0 WNW 9 22 5 12 1010.9 1010.9 0.0
27/04:00pm 28.2 28.4 16.8 50 7.1 WNW 11 20 6 11 1010.9 1010.9 0.0
27/03:30pm 28.3 27.4 15.9 47 7.6 N 15 26 8 14 1010.6 1010.6 0.0
27/03:00pm 28.8 28.0 15.0 43 8.4 N 13 24 7 13 1010.7 1010.7 0.0
27/02:30pm 32.5 28.9 6.7 20 14.0 E 15 24 8 13 1011.2 1011.2 0.0
27/02:00pm 32.3 28.1 5.7 19 14.2 E 17 28 9 15 1011.7 1011.7 0.0
27/01:30pm 31.9 28.6 8.2 23 13.1 E 15 22 8 12 1012.1 1012.1 0.0
27/01:00pm 30.9 26.5 6.7 22 13.0 E 19 32 10 17 1012.7 1012.7 0.0
27/12:30pm 30.8 27.5 7.9 24 12.6 E 15 24 8 13 1013.2 1013.2 0.0
27/12:00pm 29.0 27.7 12.4 36 9.7 E 11 19 6 10 1013.7 1013.7 0.0
27/11:30am 28.2 27.0 14.1 42 8.4 E 13 19 7 10 1014.2 1014.2 0.0
27/11:00am 27.6 26.7 14.9 45 7.7 E 13 19 7 10 1014.6 1014.6 0.0
27/10:30am 27.1 26.3 15.1 47 7.3 ENE 13 20 7 11 1014.9 1014.9 0.0
27/10:00am 26.3 26.7 16.3 54 6.2 E 9 15 5 8 1014.9 1014.9 0.0
27/09:30am 25.2 26.8 18.2 65 4.4 E 7 11 4 6 1014.8 1014.8 0.0
27/09:00am 23.7 25.1 17.7 69 3.7 E 7 11 4 6 1014.7 1014.7 0.0
27/08:30am 21.9 22.3 17.3 75 2.8 E 11 19 6 10 1014.5 1014.5 0.0
27/08:00am 20.9 23.3 19.6 92 0.8 ESE 6 7 3 4 1013.9 1013.9 0.0
27/07:30am 19.7 22.4 19.4 98 0.2 SE 4 6 2 3 1013.4 1013.4 0.0
27/07:00am 18.2 20.3 17.2 94 0.6 SE 2 6 1 3 1013.1 1013.1 0.0
27/06:30am 19.6 22.0 18.9 96 0.4 E 4 9 2 5 1012.9 1012.9 0.0
27/06:00am 20.3 22.7 20.0 98 0.2 ENE 7 13 4 7 1012.7 1012.7 0.0
27/05:30am 19.2 21.2 18.7 97 0.3 E 6 9 3 5 1012.2 1012.2 0.0
27/05:00am 18.6 20.9 17.8 95 0.5 SE 2 4 1 2 1011.8 1011.8 0.0
27/04:30am 19.1 21.3 18.3 95 0.5 SSE 4 6 2 3 1011.8 1011.8 0.0
27/04:00am 19.5 21.9 18.7 95 0.5 S 4 6 2 3 1011.8 1011.8 0.0
27/03:30am 19.4 21.8 17.9 91 0.9 S 2 4 1 2 1011.8 1011.8 0.0
27/03:00am 20.7 23.7 19.2 91 0.9 S 2 6 1 3 1011.9 1011.9 0.0
27/02:30am 20.5 23.3 18.8 90 1.1 SW 2 4 1 2 1012.1 1012.1 0.0
27/02:00am 21.3 23.9 19.2 88 1.3 WSW 4 7 2 4 1012.4 1012.4 0.0
27/01:30am 22.1 24.4 19.5 85 1.7 W 6 9 3 5 1012.5 1012.5 0.0
27/01:00am 22.3 24.5 19.1 82 2.0 W 6 7 3 4 1012.8 1012.8 0.0
27/12:30am 22.9 25.5 20.1 84 1.8 W 6 9 3 5 1012.8 1012.8 0.0
27/12:00am 23.2 25.4 19.6 80 2.3 W 7 13 4 7 1013.0 1013.0 0.0
 
Date/Time
CST
Temp
°C
App
Temp
°C
Dew
Point
Rel
Hum
%
Delta-T
°C
Wind Press
QNH
hPa
Press
MSL
hPa
Rain
since 9 am
mm
Dir
 
Spd
km/h
Gust
km/h
Spd
kts
Gust
kts
26/11:30pm 23.3 25.5 19.2 78 2.6 W 6 9 3 5 1013.2 1013.2 0.0
26/11:00pm 23.7 25.8 19.0 75 3.0 W 6 9 3 5 1013.3 1013.3 0.0
26/10:30pm 23.9 25.7 18.8 73 3.2 W 7 15 4 8 1013.5 1013.5 0.0
26/10:00pm 23.8 25.9 18.9 74 3.1 W 6 11 3 6 1013.5 1013.5 0.0
26/09:30pm 23.6 25.6 18.7 74 3.1 W 6 9 3 5 1013.2 1013.2 0.0
26/09:00pm 23.5 25.4 18.6 74 3.1 W 6 11 3 6 1013.0 1013.0 0.0
26/08:30pm 23.7 25.7 17.9 70 3.6 WNW 4 7 2 4 1012.5 1012.5 0.0
26/08:00pm 23.9 25.6 18.1 70 3.6 WNW 6 9 3 5 1012.2 1012.2 0.0
26/07:30pm 24.0 25.5 17.5 67 4.0 WNW 6 9 3 5 1012.0 1012.0 0.0
26/07:00pm 24.3 25.5 17.3 65 4.3 WNW 7 11 4 6 1011.7 1011.7 0.0
26/06:30pm 24.7 25.3 16.9 62 4.8 W 9 15 5 8 1011.3 1011.3 0.0
26/06:00pm 25.6 26.5 17.5 61 5.1 W 9 17 5 9 1011.1 1011.1 0.0
26/05:30pm 26.2 27.0 18.1 61 5.1 W 11 19 6 10 1011.0 1011.0 0.0
26/05:00pm 27.2 27.9 17.1 54 6.3 WNW 9 17 5 9 1011.0 1011.0 0.0
26/04:30pm 27.6 27.9 16.9 52 6.7 WNW 11 19 6 10 1011.1 1011.1 0.0
26/04:00pm 28.5 29.2 17.1 50 7.2 WNW 9 17 5 9 1011.3 1011.3 0.0
26/03:30pm 32.1 27.9 4.0 17 14.6 E 15 22 8 12 1011.1 1011.1 0.0
26/03:00pm 32.4 28.7 4.2 17 14.7 E 13 20 7 11 1011.4 1011.4 0.0
26/02:30pm 32.6 28.1 4.4 17 14.7 E 17 24 9 13 1011.9 1011.9 0.0
26/02:00pm 31.9 27.5 4.6 18 14.3 E 17 26 9 14 1012.2 1012.2 0.0
26/01:30pm 31.8 27.4 4.6 18 14.2 E 17 26 9 14 1012.5 1012.5 0.0
26/01:00pm 30.8 25.9 5.3 20 13.4 E 20 32 11 17 1012.9 1012.9 0.0
26/12:30pm 30.6 25.8 5.8 21 13.1 E 20 35 11 19 1013.4 1013.4 0.0
26/12:00pm 31.3 26.9 6.4 21 13.3 E 19 32 10 17 1014.0 1014.0 0.0
26/11:30am 29.6 26.2 7.5 25 12.0 E 15 30 8 16 1014.7 1014.7 0.0
26/11:00am 28.5 25.0 8.7 29 10.9 E 17 28 9 15 1015.1 1015.1 0.0
26/10:30am 27.6 23.9 8.0 29 10.6 E 17 28 9 15 1015.4 1015.4 0.0
26/10:00am 26.8 23.6 8.3 31 10.0 E 15 22 8 12 1015.5 1015.5 0.0
26/09:30am 25.8 23.3 8.3 33 9.4 E 11 19 6 10 1015.7 1015.7 0.0
26/09:00am 24.4 22.4 8.8 37 8.4 E 9 17 5 9 1015.6 1015.6 0.0
26/08:30am 23.3 22.0 10.0 43 7.3 ESE 7 11 4 6 1015.5 1015.5 0.0
26/08:00am 22.0 21.5 12.0 53 5.6 ESE 6 9 3 5 1015.3 1015.3 0.0
26/07:30am 20.3 19.4 11.2 56 5.0 E 7 13 4 7 1014.9 1014.9 0.0
26/07:00am 19.8 18.6 10.2 54 5.2 E 7 11 4 6 1014.6 - 0.0
26/06:30am 20.4 18.8 10.2 52 5.5 E 9 15 5 8 1014.1 1014.1 0.0
26/06:00am 19.9 19.0 11.4 58 4.7 ESE 7 11 4 6 1013.6 1013.6 0.0
26/05:30am 19.4 19.1 12.7 65 3.8 SE 6 9 3 5 1013.2 1013.2 0.0
26/05:00am 18.0 18.8 14.7 81 1.9 ESE 4 7 2 4 1012.9 - 0.0
26/04:30am 19.0 20.6 17.8 93 0.7 SSE 6 13 3 7 1012.9 1012.9 0.0
26/04:00am 19.8 22.5 19.5 98 0.2 SSE 4 7 2 4 1012.8 - 0.0
26/03:30am 17.9 19.6 17.1 95 0.5 ESE 4 6 2 3 1012.7 1012.7 0.0
26/03:00am 18.7 20.9 18.4 98 0.2 E 4 6 2 3 1012.8 1012.8 0.0
26/02:30am 18.7 20.4 18.0 96 0.4 E 6 7 3 4 1012.9 1012.9 0.0
26/02:00am 18.9 20.9 17.9 94 0.6 SSE 4 4 2 2 1013.1 - 0.0
26/01:30am 19.1 21.1 17.9 93 0.7 SSE 4 4 2 2 1013.3 1013.3 0.0
26/01:00am 20.7 23.5 20.4 98 0.2 S 6 7 3 4 1013.3 - 0.0
26/12:30am 19.0 21.3 17.8 93 0.7 S 2 4 1 2 1013.2 1013.2 0.0
26/12:00am 19.4 21.9 18.2 93 0.7 WSW 2 6 1 3 1013.4 1013.4 0.0
 
Date/Time
CST
Temp
°C
App
Temp
°C
Dew
Point
Rel
Hum
%
Delta-T
°C
Wind Press
QNH
hPa
Press
MSL
hPa
Rain
since 9 am
mm
Dir
 
Spd
km/h
Gust
km/h
Spd
kts
Gust
kts
25/11:30pm 19.9 23.0 18.6 92 0.8 CALM 0 0 0 0 1013.5 1013.5 0.0
25/11:00pm 20.5 23.5 19.2 92 0.8 SW 2 4 1 2 1013.5 - 0.0
25/10:30pm 21.1 24.7 19.7 92 0.9 CALM 0 0 0 0 1013.4 1013.4 0.0
25/10:00pm 21.6 25.4 20.2 92 0.9 CALM 0 0 0 0 1013.2 - 0.0
25/09:30pm 22.0 25.7 19.9 88 1.3 CALM 0 0 0 0 1013.1 1013.1 0.0
25/09:00pm 22.8 25.9 19.6 82 2.0 W 2 4 1 2 1013.0 1013.0 0.0
25/08:30pm 23.9 27.7 21.0 84 1.9 W 2 4 1 2 1012.8 1012.8 0.0
25/08:00pm 24.5 28.1 21.2 82 2.2 W 4 7 2 4 1012.6 - 0.0
25/07:30pm 24.6 27.8 20.5 78 2.7 NW 4 9 2 5 1012.2 1012.2 0.0
25/07:00pm 24.9 27.8 20.6 77 2.8 NW 6 7 3 4 1011.9 - 0.0
25/06:30pm 25.5 28.2 20.3 73 3.4 NW 6 7 3 4 1011.7 1011.7 0.0
25/06:00pm 26.7 29.0 19.8 66 4.5 NW 7 13 4 7 1011.5 1011.5 0.0
25/05:30pm 27.3 29.9 20.4 66 4.5 WNW 7 13 4 7 1011.2 1011.2 0.0
25/05:00pm 28.3 30.7 20.1 61 5.4 WNW 7 15 4 8 1011.0 - 0.0
25/04:30pm 28.5 31.1 20.0 60 5.6 WNW 6 15 3 8 1011.1 1011.1 0.0
25/04:23pm 28.6 30.4 18.4 54 6.5 W 6 11 3 6 1011.1 - 0.0
25/04:00pm 33.6 31.2 10.2 24 13.5 ENE 13 22 7 12 1011.0 - 0.0
25/03:30pm 33.1 30.2 9.8 24 13.3 E 15 22 8 12 1011.2 1011.2 0.0
25/03:00pm 33.5 30.2 9.5 23 13.7 E 17 26 9 14 1011.5 1011.5 0.0
25/02:30pm 32.9 29.4 10.3 25 13.0 E 19 28 10 15 1011.8 1011.8 0.0
25/02:00pm 32.6 29.4 10.0 25 12.9 E 17 30 9 16 1012.3 - 0.0
25/01:30pm 32.4 28.9 11.0 27 12.4 E 20 32 11 17 1012.9 1012.9 0.0
25/01:00pm 31.8 28.5 11.0 28 12.0 E 19 32 10 17 1013.4 - 0.0
25/12:30pm 31.3 29.1 12.2 31 11.2 E 15 24 8 13 1013.9 1013.9 0.0
25/12:00pm 31.1 29.4 12.5 32 11.0 E 13 20 7 11 1014.5 1014.5 0.0
25/11:30am 30.4 29.6 12.8 34 10.4 ESE 9 22 5 12 1015.0 1015.0 0.0
25/11:00am 28.7 29.1 15.2 43 8.2 S 7 11 4 6 1015.4 - 0.0
25/10:30am 27.9 28.4 14.9 45 7.9 SSE 6 11 3 6 1015.6 1015.6 0.0
25/10:00am 26.6 27.5 16.5 54 6.2 SSE 7 13 4 7 1016.0 - 0.0
25/09:30am 24.7 25.3 15.9 58 5.3 SSE 7 15 4 8 1016.0 1016.0 0.0
25/09:00am 23.6 24.4 16.4 64 4.4 SSE 7 17 4 9 1015.7 1015.7 0.0
25/08:30am 22.6 23.6 16.9 70 3.5 SSE 7 15 4 8 1015.6 1015.6 0.0
25/08:00am 21.3 22.6 17.5 79 2.3 SSE 7 9 4 5 1015.3 - 0.0
25/07:30am 20.6 22.3 18.5 88 1.3 SSE 7 13 4 7 1015.1 1015.1 0.0
25/07:00am 19.1 21.1 18.8 98 0.2 SSE 6 9 3 5 1014.5 - 0.0
25/06:30am 17.3 18.8 16.7 96 0.4 SE 4 6 2 3 1014.1 1014.1 0.0
25/06:00am 17.3 18.8 16.7 96 0.4 ESE 4 6 2 3 1014.0 1014.0 0.0
25/05:30am 17.0 18.3 16.2 95 0.5 ESE 4 4 2 2 1013.6 1013.6 0.0
25/05:00am 17.4 18.8 16.4 94 0.6 SE 4 6 2 3 1013.5 - 0.0
25/04:30am 17.9 19.6 17.1 95 0.5 ESE 4 6 2 3 1013.7 1013.7 0.0
25/04:00am 18.0 19.6 17.0 94 0.6 ESE 4 4 2 2 1013.8 - 0.0
25/03:30am 19.1 20.9 18.3 95 0.5 ESE 6 9 3 5 1014.0 1014.0 0.0
25/03:00am 19.3 21.2 18.5 95 0.5 E 6 9 3 5 1014.2 1014.2 0.0
25/02:30am 18.6 20.3 17.1 91 0.9 ESE 4 6 2 3 1014.1 1014.1 0.0
25/02:00am 20.4 23.2 19.7 96 0.4 SSE 4 7 2 4 1014.3 - 0.0
25/01:30am 19.6 21.8 18.4 93 0.7 SSE 4 6 2 3 1014.2 1014.2 0.0
25/01:00am 19.3 21.5 18.3 94 0.6 SSE 4 7 2 4 1014.4 - 0.0
25/12:30am 19.2 21.9 17.7 91 0.9 CALM 0 4 0 2 1014.3 1014.3 0.0
25/12:00am 19.9 22.8 18.2 90 1.1 CALM 0 4 0 2 1014.5 1014.5 0.0
 
Date/Time
CST
Temp
°C
App
Temp
°C
Dew
Point
Rel
Hum
%
Delta-T
°C
Wind Press
QNH
hPa
Press
MSL
hPa
Rain
since 9 am
mm
Dir
 
Spd
km/h
Gust
km/h
Spd
kts
Gust
kts
24/11:30pm 20.7 23.8 19.4 92 0.8 S 2 4 1 2 1014.7 1014.7 0.0
24/11:00pm 20.9 23.6 19.4 91 1.0 S 4 6 2 3 1014.6 - 0.0
24/10:30pm 20.1 21.8 17.1 83 1.8 SSE 4 6 2 3 1014.5 1014.5 0.0

Other Formats:

Comma delimited format used in spreadsheet applications
http://www.bom.gov.au/fwo/IDD60801/IDD60801.94116.axf

JavaScript Object Notation format (JSON) in row-major order
http://www.bom.gov.au/fwo/IDD60801/IDD60801.94116.json